createdAt,value
2018-01-15T00:02:06.720Z,0.80
2018-01-15T00:04:34.155Z,0.80
2018-01-15T00:07:01.912Z,0.80
2018-01-15T00:09:29.340Z,0.80
2018-01-15T00:11:57.549Z,0.80
2018-01-15T00:14:25.072Z,0.80
2018-01-15T00:16:53.287Z,0.90
2018-01-15T00:19:20.754Z,0.80
2018-01-15T00:21:48.195Z,0.90
2018-01-15T00:24:15.660Z,0.90
2018-01-15T00:26:43.101Z,0.90
2018-01-15T00:29:10.704Z,0.90
2018-01-15T00:31:38.142Z,0.90
2018-01-15T00:34:05.600Z,0.90
2018-01-15T00:36:33.804Z,1.00
2018-01-15T00:39:01.273Z,1.00
2018-01-15T00:41:28.700Z,1.00
2018-01-15T00:43:56.156Z,1.00
2018-01-15T00:46:23.597Z,1.10
2018-01-15T00:48:51.484Z,1.10
2018-01-15T00:51:18.924Z,1.10
2018-01-15T00:53:46.368Z,1.10
2018-01-15T00:56:14.204Z,1.10
2018-01-15T00:58:42.408Z,1.20
2018-01-15T01:01:10.161Z,1.20
2018-01-15T01:03:37.599Z,1.20
2018-01-15T01:06:05.811Z,1.20
2018-01-15T01:08:34.105Z,1.20
2018-01-15T01:11:01.882Z,1.20
2018-01-15T01:13:29.323Z,1.20
2018-01-15T01:15:56.767Z,1.20
2018-01-15T01:18:24.230Z,1.20
2018-01-15T01:20:51.696Z,1.20
2018-01-15T01:23:19.135Z,1.20
2018-01-15T01:25:46.709Z,1.20
2018-01-15T01:28:14.139Z,1.30
2018-01-15T01:30:41.571Z,1.30
2018-01-15T01:33:09.037Z,1.30
2018-01-15T01:35:53.203Z,1.30
2018-01-15T01:38:20.673Z,1.30
2018-01-15T01:40:48.109Z,1.30
2018-01-15T01:43:16.645Z,1.30
2018-01-15T01:45:44.084Z,1.30
2018-01-15T01:48:11.896Z,1.40
2018-01-15T01:50:39.336Z,1.40
2018-01-15T01:53:06.780Z,1.40
2018-01-15T01:55:34.240Z,1.30
2018-01-15T01:58:07.048Z,1.40
2018-01-15T02:00:36.452Z,1.30
2018-01-15T02:03:03.959Z,1.30
2018-01-15T02:05:31.387Z,1.30
2018-01-15T02:07:59.736Z,1.30
2018-01-15T02:10:27.172Z,1.30
2018-01-15T02:12:54.613Z,1.30
2018-01-15T02:15:22.070Z,1.40
2018-01-15T02:17:56.392Z,1.40
2018-01-15T02:20:23.941Z,1.40
2018-01-15T02:22:51.368Z,1.40
2018-01-15T02:25:19.636Z,1.40
2018-01-15T02:27:47.080Z,1.40
2018-01-15T02:30:14.532Z,1.50
2018-01-15T02:32:41.973Z,1.50
2018-01-15T02:35:09.453Z,1.50
2018-01-15T02:37:36.888Z,1.50
2018-01-15T02:40:04.324Z,1.50
2018-01-15T02:42:32.309Z,1.50
2018-01-15T02:44:59.752Z,1.50
2018-01-15T02:47:27.188Z,1.60
2018-01-15T02:49:54.653Z,1.60
2018-01-15T02:52:22.112Z,1.60
2018-01-15T02:54:49.548Z,1.60
2018-01-15T02:57:22.896Z,1.70
2018-01-15T02:59:50.467Z,1.60
2018-01-15T03:02:24.265Z,1.70
2018-01-15T03:04:51.704Z,1.70
2018-01-15T03:07:19.157Z,1.70
2018-01-15T03:09:46.620Z,1.70
2018-01-15T03:12:14.080Z,1.70
2018-01-15T03:14:41.522Z,1.70
2018-01-15T03:17:09.003Z,1.70
2018-01-15T03:19:36.521Z,1.80
2018-01-15T03:22:04.720Z,1.70
2018-01-15T03:24:33.013Z,1.80
2018-01-15T03:27:00.450Z,1.80
2018-01-15T03:29:27.884Z,1.80
2018-01-15T03:31:56.182Z,1.80
2018-01-15T03:34:23.640Z,1.80
2018-01-15T03:36:51.076Z,1.80
2018-01-15T03:39:19.472Z,1.90
2018-01-15T03:41:47.242Z,1.90
2018-01-15T03:44:14.678Z,1.90
2018-01-15T03:46:42.881Z,1.90
2018-01-15T03:49:10.336Z,1.90
2018-01-15T03:51:42.629Z,2.00
2018-01-15T03:54:10.069Z,2.00
2018-01-15T03:56:38.019Z,2.00
2018-01-15T03:59:05.447Z,2.00
2018-01-15T04:01:33.669Z,2.00
2018-01-15T04:04:01.123Z,2.00
2018-01-15T04:06:28.592Z,2.00
2018-01-15T04:08:56.031Z,2.00
2018-01-15T04:11:23.472Z,2.00
2018-01-15T04:13:51.849Z,2.10
2018-01-15T04:16:19.284Z,2.00
2018-01-15T04:18:46.721Z,2.10
2018-01-15T04:21:14.220Z,2.10
2018-01-15T04:23:42.448Z,2.10
2018-01-15T04:26:09.883Z,2.10
2018-01-15T04:28:37.344Z,2.10
2018-01-15T04:31:04.786Z,2.10
2018-01-15T04:33:32.673Z,2.10
2018-01-15T04:36:00.137Z,2.10
2018-01-15T04:38:27.601Z,2.20
2018-01-15T04:40:55.036Z,2.20
2018-01-15T04:43:22.480Z,2.20
2018-01-15T04:45:49.956Z,2.20
2018-01-15T04:48:17.392Z,2.20
2018-01-15T04:50:44.832Z,2.20
2018-01-15T04:53:13.461Z,2.30
2018-01-15T04:58:33.512Z,2.30
2018-01-15T05:01:01.742Z,2.30
2018-01-15T05:03:29.181Z,2.30
2018-01-15T05:05:56.652Z,2.30
2018-01-15T05:08:24.137Z,2.30
2018-01-15T05:10:51.663Z,2.30
2018-01-15T05:13:19.099Z,2.30
2018-01-15T05:15:46.566Z,2.30
2018-01-15T05:18:14.004Z,2.30
2018-01-15T05:20:42.231Z,2.40
2018-01-15T05:23:09.680Z,2.30
2018-01-15T05:25:37.121Z,2.30
2018-01-15T05:28:06.608Z,2.40
2018-01-15T05:30:34.049Z,2.40
2018-01-15T05:33:02.584Z,2.40
2018-01-15T05:35:30.024Z,2.40
2018-01-15T05:37:57.456Z,2.30
2018-01-15T05:40:25.260Z,2.40
2018-01-15T05:42:52.713Z,2.30
2018-01-15T05:45:20.156Z,2.30
2018-01-15T05:47:47.952Z,2.30
2018-01-15T05:50:30.404Z,2.30
2018-01-15T05:52:58.632Z,2.30
2018-01-15T05:58:00.983Z,2.20
2018-01-15T06:00:28.544Z,2.20
2018-01-15T06:02:55.978Z,2.20
2018-01-15T06:05:24.220Z,2.20
2018-01-15T06:07:51.665Z,2.20
2018-01-15T06:10:19.091Z,2.20
2018-01-15T06:12:47.390Z,2.20
2018-01-15T06:15:26.748Z,2.20
2018-01-15T06:17:54.193Z,2.10
2018-01-15T06:20:21.971Z,2.10
2018-01-15T06:22:49.395Z,2.10
2018-01-15T06:25:16.836Z,2.10
2018-01-15T06:27:45.873Z,2.10
2018-01-15T06:30:13.314Z,2.10
2018-01-15T06:32:40.755Z,2.10
2018-01-15T06:35:08.327Z,2.10
2018-01-15T06:37:35.763Z,2.10
2018-01-15T06:40:03.209Z,2.10
2018-01-15T06:42:31.841Z,2.00
2018-01-15T06:44:59.281Z,2.00
2018-01-15T06:47:27.492Z,2.00
2018-01-15T06:49:54.956Z,2.00
2018-01-15T06:52:23.815Z,2.00
2018-01-15T06:54:51.254Z,2.00
2018-01-15T06:57:18.876Z,2.00
2018-01-15T06:59:47.199Z,2.00
2018-01-15T07:02:15.423Z,2.00
2018-01-15T07:04:42.868Z,2.00
2018-01-15T07:07:13.073Z,2.00
2018-01-15T07:09:40.510Z,2.00
2018-01-15T07:12:07.950Z,2.00
2018-01-15T07:14:35.417Z,1.90
2018-01-15T07:17:02.868Z,2.00
2018-01-15T07:19:30.468Z,2.00
2018-01-15T07:21:57.939Z,2.00
2018-01-15T07:24:26.324Z,2.00
2018-01-15T07:26:53.764Z,1.90
2018-01-15T07:29:21.239Z,1.90
2018-01-15T07:31:48.682Z,2.00
2018-01-15T07:34:16.180Z,2.00
2018-01-15T07:36:44.400Z,2.00
2018-01-15T07:39:11.831Z,2.00
2018-01-15T07:41:44.649Z,2.00
2018-01-15T07:44:12.096Z,2.00
2018-01-15T07:46:44.656Z,2.00
2018-01-15T07:49:12.101Z,2.00
2018-01-15T07:51:39.557Z,2.00
2018-01-15T07:54:07.025Z,2.00
2018-01-15T07:56:34.460Z,2.00
2018-01-15T07:59:03.094Z,2.00
2018-01-15T08:01:30.548Z,2.00
2018-01-15T08:03:57.981Z,2.10
2018-01-15T08:06:25.436Z,2.10
2018-01-15T08:09:14.865Z,2.10
2018-01-15T08:11:42.567Z,2.20
2018-01-15T08:14:10.013Z,2.20
2018-01-15T08:16:38.225Z,2.20
2018-01-15T08:19:05.715Z,2.20
2018-01-15T08:21:33.190Z,2.20
2018-01-15T08:24:01.403Z,2.30
2018-01-15T08:26:28.882Z,2.30
2018-01-15T08:28:56.320Z,2.30
2018-01-15T08:31:23.757Z,2.30
2018-01-15T08:33:51.335Z,2.40
2018-01-15T08:36:18.781Z,2.40
2018-01-15T08:38:46.220Z,2.40
2018-01-15T08:41:14.756Z,2.40
2018-01-15T08:43:42.208Z,2.40
2018-01-15T08:46:09.648Z,2.50
2018-01-15T08:48:37.545Z,2.50
2018-01-15T08:51:04.980Z,2.50
2018-01-15T08:53:32.429Z,2.50
2018-01-15T08:56:00.038Z,2.60
2018-01-15T08:58:27.467Z,2.60
2018-01-15T09:00:54.924Z,2.60
2018-01-15T09:03:22.366Z,2.60
2018-01-15T09:05:49.836Z,2.60
2018-01-15T09:08:17.277Z,2.70
2018-01-15T09:10:45.386Z,2.70
2018-01-15T09:13:12.841Z,2.70
2018-01-15T09:15:40.278Z,2.70
2018-01-15T09:18:08.164Z,2.80
2018-01-15T09:20:35.611Z,2.80
2018-01-15T09:23:03.053Z,2.80
2018-01-15T09:25:30.520Z,2.80
2018-01-15T09:27:57.973Z,2.90
2018-01-15T09:30:26.195Z,3.00
2018-01-15T09:32:53.638Z,3.00
2018-01-15T09:35:21.076Z,3.00
2018-01-15T09:37:48.672Z,3.10
2018-01-15T09:40:17.081Z,3.20
2018-01-15T09:42:44.519Z,3.20
2018-01-15T09:45:30.758Z,3.30
2018-01-15T09:47:58.252Z,3.20
2018-01-15T09:50:25.668Z,3.30
2018-01-15T09:52:53.113Z,3.40
2018-01-15T09:55:20.900Z,3.50
2018-01-15T09:57:48.374Z,3.50
2018-01-15T10:00:15.808Z,3.60
2018-01-15T10:02:43.301Z,3.60
2018-01-15T10:05:10.753Z,3.70
2018-01-15T10:07:38.184Z,3.70
2018-01-15T10:10:06.065Z,3.80
2018-01-15T10:12:33.544Z,3.80
2018-01-15T10:15:01.000Z,3.80
2018-01-15T10:23:27.225Z,4.10
2018-01-15T10:25:54.679Z,4.10
2018-01-15T10:28:22.115Z,4.20
2018-01-15T10:30:49.956Z,4.20
2018-01-15T10:33:17.392Z,4.30
2018-01-15T10:35:44.832Z,4.30
2018-01-15T10:38:12.357Z,4.30
2018-01-15T10:40:39.946Z,4.40
2018-01-15T10:43:07.376Z,4.40
2018-01-15T10:45:34.819Z,4.50
2018-01-15T10:48:03.069Z,4.60
2018-01-15T10:50:30.510Z,4.60
2018-01-15T10:52:58.472Z,4.60
2018-01-15T10:55:28.523Z,4.70
2018-01-15T10:57:55.961Z,4.70
2018-01-15T11:00:29.246Z,4.70
2018-01-15T11:02:56.680Z,4.80
2018-01-15T11:05:24.125Z,4.80
2018-01-15T11:10:35.796Z,4.80
2018-01-15T11:13:03.237Z,4.80
2018-01-15T11:15:30.680Z,4.70
2018-01-15T11:17:58.156Z,4.70
2018-01-15T11:20:25.604Z,4.70
2018-01-15T11:22:53.147Z,4.80
2018-01-15T11:25:20.632Z,4.80
2018-01-15T11:27:53.465Z,4.80
2018-01-15T11:30:20.847Z,4.90
2018-01-15T11:32:48.287Z,4.90
2018-01-15T11:35:15.755Z,5.00
2018-01-15T11:37:43.532Z,5.00
2018-01-15T11:40:10.969Z,5.00
2018-01-15T11:42:38.419Z,5.10
2018-01-15T11:45:06.048Z,5.00
2018-01-15T11:47:34.261Z,5.00
2018-01-15T11:50:01.709Z,5.00
2018-01-15T11:52:29.535Z,5.00
2018-01-15T11:54:57.905Z,5.00
2018-01-15T11:57:25.339Z,5.00
2018-01-15T11:59:52.816Z,5.00
2018-01-15T12:02:20.261Z,5.00
2018-01-15T12:04:47.860Z,4.90
2018-01-15T12:07:16.067Z,4.90
2018-01-15T12:09:43.550Z,4.90
2018-01-15T12:12:11.065Z,5.00
2018-01-15T12:14:38.525Z,5.00
2018-01-15T12:17:06.745Z,4.90
2018-01-15T12:19:34.212Z,4.90
2018-01-15T12:22:02.627Z,4.90
2018-01-15T12:24:30.089Z,4.90
2018-01-15T12:26:57.509Z,4.90
2018-01-15T12:29:25.027Z,4.90
2018-01-15T12:31:54.897Z,5.00
2018-01-15T12:34:22.336Z,5.00
2018-01-15T12:36:49.784Z,5.10
2018-01-15T12:39:17.372Z,5.10
2018-01-15T12:41:45.304Z,5.20
2018-01-15T12:44:19.611Z,5.20
2018-01-15T12:46:47.241Z,5.30
2018-01-15T12:49:15.443Z,5.30
2018-01-15T12:51:42.888Z,5.30
2018-01-15T12:54:10.348Z,5.30
2018-01-15T12:56:40.459Z,5.30
2018-01-15T12:59:07.988Z,5.30
2018-01-15T13:01:35.425Z,5.30
2018-01-15T13:04:03.284Z,5.30
2018-01-15T13:06:42.468Z,5.30
2018-01-15T13:09:09.992Z,5.20
2018-01-15T13:11:37.434Z,5.20
2018-01-15T13:14:04.930Z,5.20
2018-01-15T13:16:32.361Z,5.30
2018-01-15T13:19:00.119Z,5.20
2018-01-15T13:21:27.557Z,5.20
2018-01-15T13:23:55.065Z,5.20
2018-01-15T13:26:23.272Z,5.20
2018-01-15T13:28:50.738Z,5.10
2018-01-15T13:31:18.179Z,5.10
2018-01-15T13:33:45.704Z,5.10
2018-01-15T13:36:13.280Z,5.10
2018-01-15T13:38:41.496Z,5.10
2018-01-15T13:41:11.437Z,5.10
2018-01-15T13:43:38.868Z,5.10
2018-01-15T13:46:06.325Z,5.10
2018-01-15T13:48:33.787Z,5.10
2018-01-15T13:51:01.269Z,5.10
2018-01-15T13:53:28.720Z,5.10
2018-01-15T13:55:56.356Z,5.10
2018-01-15T13:58:25.363Z,5.10
2018-01-15T14:00:52.813Z,5.00
2018-01-15T14:03:20.252Z,5.00
2018-01-15T14:05:48.080Z,5.00
2018-01-15T14:08:15.528Z,5.00
2018-01-15T14:10:42.993Z,5.00
2018-01-15T14:13:10.952Z,5.00
2018-01-15T14:15:38.349Z,5.00
2018-01-15T14:18:05.788Z,4.90
2018-01-15T14:20:34.024Z,4.90
2018-01-15T14:23:05.251Z,4.90
2018-01-15T14:25:32.688Z,4.80
2018-01-15T14:28:00.163Z,4.80
2018-01-15T14:30:27.596Z,4.80
2018-01-15T14:32:55.036Z,4.80
2018-01-15T14:35:24.114Z,4.80
2018-01-15T14:37:51.540Z,4.80
2018-01-15T14:40:18.976Z,4.80
2018-01-15T14:42:46.448Z,4.80
2018-01-15T14:45:13.902Z,4.80
2018-01-15T14:47:41.360Z,4.80
2018-01-15T14:50:10.707Z,4.80
2018-01-15T14:52:38.501Z,4.80
2018-01-15T14:55:06.701Z,4.80
2018-01-15T14:57:34.141Z,4.80
2018-01-15T15:00:01.691Z,4.70
2018-01-15T15:02:29.929Z,4.70
2018-01-15T15:04:57.379Z,4.70
2018-01-15T15:07:25.120Z,4.70
2018-01-15T15:09:52.709Z,4.70
2018-01-15T15:12:20.148Z,4.70
2018-01-15T15:14:47.752Z,4.70
2018-01-15T15:17:15.220Z,4.70
2018-01-15T15:19:43.428Z,4.70
2018-01-15T15:22:22.956Z,4.70
2018-01-15T15:24:50.422Z,4.70
2018-01-15T15:27:17.882Z,4.70
2018-01-15T15:29:45.319Z,4.70
2018-01-15T15:32:14.500Z,4.70
2018-01-15T15:34:42.714Z,4.60
2018-01-15T15:37:10.162Z,4.60
2018-01-15T15:39:37.682Z,4.60
2018-01-15T15:42:08.932Z,4.60
2018-01-15T15:44:36.381Z,4.60
2018-01-15T15:47:18.923Z,4.60
2018-01-15T15:49:47.128Z,4.60
2018-01-15T15:52:14.576Z,4.60
2018-01-15T15:54:42.042Z,4.60
2018-01-15T15:57:10.916Z,4.60
2018-01-15T15:59:38.357Z,4.60
2018-01-15T16:02:06.594Z,4.60
2018-01-15T16:04:34.041Z,4.60
2018-01-15T16:07:01.497Z,4.60
2018-01-15T16:09:29.098Z,4.60
2018-01-15T16:11:57.303Z,4.60
2018-01-15T16:14:35.162Z,4.60
2018-01-15T16:17:02.606Z,4.60
2018-01-15T16:19:30.036Z,4.60
2018-01-15T16:22:09.296Z,4.60
2018-01-15T16:24:36.736Z,4.60
2018-01-15T16:27:04.378Z,4.60
2018-01-15T16:29:31.824Z,4.60
2018-01-15T16:31:59.409Z,4.60
2018-01-15T16:34:33.725Z,4.60
2018-01-15T16:37:01.185Z,4.60
2018-01-15T16:39:28.628Z,4.60
2018-01-15T16:41:56.092Z,4.60
2018-01-15T16:44:24.288Z,4.60
2018-01-15T16:46:58.800Z,4.60
2018-01-15T16:49:26.241Z,4.60
2018-01-15T16:51:54.449Z,4.60
2018-01-15T16:54:21.904Z,4.50
2018-01-15T16:56:56.092Z,4.60
2018-01-15T16:59:23.585Z,4.60
2018-01-15T17:01:51.040Z,4.60
2018-01-15T17:04:18.532Z,4.60
2018-01-15T17:06:46.741Z,4.60
2018-01-15T17:09:14.172Z,4.60
2018-01-15T17:11:41.689Z,4.60
2018-01-15T17:14:09.116Z,4.60
2018-01-15T17:16:36.999Z,4.60
2018-01-15T17:19:04.425Z,4.60
2018-01-15T17:21:31.856Z,4.60
2018-01-15T17:24:00.264Z,4.60
2018-01-15T17:26:27.710Z,4.60
2018-01-15T17:28:55.964Z,4.60
2018-01-15T17:31:24.189Z,4.60
2018-01-15T17:33:51.640Z,4.60
2018-01-15T17:36:19.115Z,4.60
2018-01-15T17:38:46.553Z,4.60
2018-01-15T17:41:13.996Z,4.60
2018-01-15T17:43:45.090Z,4.60
2018-01-15T17:46:12.595Z,4.60
2018-01-15T17:48:40.019Z,4.70
2018-01-15T17:51:07.443Z,4.60
2018-01-15T17:53:34.909Z,4.60
2018-01-15T17:56:02.348Z,4.70
2018-01-15T17:58:29.852Z,4.70
2018-01-15T18:00:57.282Z,4.70
2018-01-15T18:03:26.908Z,4.70
2018-01-15T18:05:54.342Z,4.70
2018-01-15T18:08:21.773Z,4.70
2018-01-15T18:10:49.992Z,4.70
2018-01-15T18:13:17.453Z,4.70
2018-01-15T18:15:44.885Z,4.70
2018-01-15T18:18:12.365Z,4.70
2018-01-15T18:20:39.800Z,4.60
2018-01-15T18:23:07.265Z,4.70
2018-01-15T18:25:35.091Z,4.60
2018-01-15T18:28:03.297Z,4.70
2018-01-15T18:30:30.720Z,4.70
2018-01-15T18:32:58.552Z,4.70
2018-01-15T18:35:25.987Z,4.70
2018-01-15T18:37:53.417Z,4.70
2018-01-15T18:40:23.628Z,4.70
2018-01-15T18:42:51.483Z,4.70
2018-01-15T18:45:18.916Z,4.70
2018-01-15T18:47:46.365Z,4.70
2018-01-15T18:50:13.840Z,4.70
2018-01-15T18:52:59.909Z,4.70
2018-01-15T18:55:27.376Z,4.70
2018-01-15T18:57:56.404Z,4.70
2018-01-15T19:00:23.840Z,4.70
2018-01-15T19:02:51.796Z,4.80
2018-01-15T19:05:19.234Z,4.70
2018-01-15T19:07:46.656Z,4.70
2018-01-15T19:10:14.876Z,4.80
2018-01-15T19:12:43.301Z,4.80
2018-01-15T19:15:10.732Z,4.80
2018-01-15T19:17:38.201Z,4.80
2018-01-15T19:20:05.637Z,4.80
2018-01-15T19:22:37.303Z,4.80
2018-01-15T19:25:04.755Z,4.80
2018-01-15T19:27:32.180Z,4.80
2018-01-15T19:29:59.689Z,4.80
2018-01-15T19:32:27.345Z,4.80
2018-01-15T19:34:58.481Z,4.80
2018-01-15T19:37:45.621Z,4.80
2018-01-15T19:40:13.097Z,4.80
2018-01-15T19:42:41.294Z,4.80
2018-01-15T19:45:14.660Z,4.80
2018-01-15T19:47:48.440Z,4.80
2018-01-15T19:50:21.649Z,4.80
2018-01-15T19:52:54.803Z,4.80
2018-01-15T19:55:28.204Z,4.80
2018-01-15T19:58:01.404Z,4.80
2018-01-15T20:00:34.685Z,4.80
2018-01-15T20:03:07.832Z,4.80
2018-01-15T20:05:41.993Z,4.80
2018-01-15T20:08:16.011Z,4.80
2018-01-15T20:10:58.357Z,4.70
2018-01-15T20:13:26.567Z,4.70
2018-01-15T20:15:56.411Z,4.70
2018-01-15T20:18:23.841Z,4.70
2018-01-15T20:20:51.268Z,4.70
2018-01-15T20:23:19.902Z,4.80
2018-01-15T20:25:51.372Z,4.80
2018-01-15T20:28:18.824Z,4.80
2018-01-15T20:30:46.262Z,4.80
2018-01-15T20:33:15.941Z,4.80
2018-01-15T20:35:44.384Z,4.80
2018-01-15T20:38:12.779Z,4.80
2018-01-15T20:40:40.984Z,4.80
2018-01-15T20:43:09.445Z,4.80
2018-01-15T20:45:37.651Z,4.80
2018-01-15T20:48:05.116Z,4.80
2018-01-15T20:50:32.558Z,4.80
2018-01-15T20:52:59.987Z,4.80
2018-01-15T20:55:28.428Z,4.80
2018-01-15T20:57:55.891Z,4.80
2018-01-15T21:00:23.328Z,4.70
2018-01-15T21:02:50.797Z,4.80
2018-01-15T21:05:18.224Z,4.70
2018-01-15T21:07:45.693Z,4.70
2018-01-15T21:10:19.436Z,4.70
2018-01-15T21:12:47.050Z,4.70
2018-01-15T21:15:14.488Z,4.70
2018-01-15T21:17:41.941Z,4.70
2018-01-15T21:20:09.377Z,4.70
2018-01-15T21:22:36.808Z,4.70
2018-01-15T21:25:04.242Z,4.70
2018-01-15T21:27:31.781Z,4.70
2018-01-15T21:29:59.280Z,4.70
2018-01-15T21:32:26.715Z,4.70
2018-01-15T21:34:54.948Z,4.60
2018-01-15T21:37:22.398Z,4.70
2018-01-15T21:39:58.765Z,4.70
2018-01-15T21:42:26.195Z,4.60
2018-01-15T21:44:53.632Z,4.60
2018-01-15T21:47:22.341Z,4.60
2018-01-15T21:49:49.780Z,4.60
2018-01-15T21:52:17.212Z,4.70
2018-01-15T21:54:44.668Z,4.70
2018-01-15T21:57:12.214Z,4.70
2018-01-15T21:59:39.668Z,4.70
2018-01-15T22:02:09.366Z,4.70
2018-01-15T22:04:38.012Z,4.70
2018-01-15T22:07:06.419Z,4.60
2018-01-15T22:09:33.928Z,4.70
2018-01-15T22:12:01.384Z,4.70
2018-01-15T22:14:28.964Z,4.70
2018-01-15T22:16:58.883Z,4.70
2018-01-15T22:19:27.232Z,4.70
2018-01-15T22:21:54.692Z,4.70
2018-01-15T22:24:22.170Z,4.70
2018-01-15T22:26:49.660Z,4.70
2018-01-15T22:29:18.605Z,4.70
2018-01-15T22:31:46.036Z,4.70
2018-01-15T22:34:14.943Z,4.80
2018-01-15T22:36:43.173Z,4.80
2018-01-15T22:39:10.682Z,4.80
2018-01-15T22:41:39.220Z,4.80
2018-01-15T22:44:06.690Z,4.80
2018-01-15T22:46:34.384Z,4.80
2018-01-15T22:49:01.850Z,4.80
2018-01-15T22:51:34.502Z,4.80
2018-01-15T22:54:01.952Z,4.80
2018-01-15T22:56:30.273Z,4.90
2018-01-15T22:58:57.880Z,4.90
2018-01-15T23:01:25.431Z,4.90
2018-01-15T23:03:52.876Z,4.90
2018-01-15T23:06:20.333Z,4.90
2018-01-15T23:08:48.094Z,4.90
2018-01-15T23:11:19.477Z,4.90
2018-01-15T23:13:46.900Z,5.00
2018-01-15T23:16:14.616Z,5.00
2018-01-15T23:18:43.075Z,5.00
2018-01-15T23:21:10.828Z,5.00
2018-01-15T23:23:38.260Z,5.00
2018-01-15T23:26:05.780Z,5.00
2018-01-15T23:28:33.999Z,5.10
2018-01-15T23:31:01.525Z,5.10
2018-01-15T23:33:29.160Z,5.10
2018-01-15T23:35:57.355Z,5.20
2018-01-15T23:38:24.925Z,5.20
2018-01-15T23:40:52.348Z,5.20
2018-01-15T23:43:19.780Z,5.20
2018-01-15T23:45:47.237Z,5.20
2018-01-15T23:48:14.789Z,5.30
2018-01-15T23:50:43.184Z,5.30
2018-01-15T23:53:10.613Z,5.30
2018-01-15T23:55:38.157Z,5.30
2018-01-15T23:58:05.584Z,5.40
